createdAt,value
2018-09-29T00:01:20.309Z,7.08
2018-09-29T00:03:47.477Z,6.92
2018-09-29T00:06:14.672Z,7.05
2018-09-29T00:08:41.877Z,7.05
2018-09-29T00:11:09.108Z,7.17
2018-09-29T00:13:36.279Z,6.67
2018-09-29T00:16:03.455Z,6.86
2018-09-29T00:18:30.617Z,6.97
2018-09-29T00:20:57.821Z,6.73
2018-09-29T00:23:24.957Z,6.91
2018-09-29T00:25:52.132Z,6.73
2018-09-29T00:28:26.060Z,6.83
2018-09-29T00:30:53.170Z,6.36
2018-09-29T00:33:20.329Z,5.98
2018-09-29T00:35:47.581Z,6.03
2018-09-29T00:38:14.816Z,6.03
2018-09-29T00:40:42.061Z,6.08
2018-09-29T00:43:09.251Z,6.11
2018-09-29T00:45:36.484Z,5.81
2018-09-29T00:48:03.692Z,5.97
2018-09-29T00:50:30.893Z,5.98
2018-09-29T00:52:58.095Z,6.23
2018-09-29T00:55:25.309Z,6.10
2018-09-29T00:57:52.472Z,6.23
2018-09-29T01:00:19.628Z,6.17
2018-09-29T01:02:47.077Z,6.25
2018-09-29T01:05:14.264Z,6.16
2018-09-29T01:07:41.424Z,6.13
2018-09-29T01:10:08.569Z,6.07
2018-09-29T01:12:35.704Z,6.09
2018-09-29T01:15:03.151Z,5.84
2018-09-29T01:17:30.436Z,6.00
2018-09-29T01:19:57.620Z,5.90
2018-09-29T01:22:24.785Z,5.61
2018-09-29T01:24:51.971Z,5.92
2018-09-29T01:27:19.136Z,5.96
2018-09-29T01:29:46.313Z,5.84
2018-09-29T01:32:13.478Z,5.25
2018-09-29T01:34:40.619Z,5.36
2018-09-29T01:37:07.804Z,5.33
2018-09-29T01:42:08.965Z,5.25
2018-09-29T01:44:36.084Z,5.33
2018-09-29T01:47:03.244Z,4.81
2018-09-29T01:49:30.416Z,5.08
2018-09-29T01:51:57.597Z,5.13
2018-09-29T01:54:24.744Z,5.04
2018-09-29T01:56:51.924Z,5.08
2018-09-29T01:59:19.061Z,4.99
2018-09-29T02:01:46.369Z,5.08
2018-09-29T02:04:13.553Z,5.17
2018-09-29T02:06:40.752Z,5.11
2018-09-29T02:09:08.411Z,5.04
2018-09-29T02:11:35.620Z,5.06
2018-09-29T02:14:02.880Z,5.20
2018-09-29T02:16:30.082Z,5.01
2018-09-29T02:18:57.276Z,5.03
2018-09-29T02:21:24.441Z,5.00
2018-09-29T02:23:51.610Z,4.94
2018-09-29T02:26:18.747Z,5.01
2018-09-29T02:28:45.927Z,5.00
2018-09-29T02:31:13.073Z,4.90
2018-09-29T02:33:40.204Z,5.02
2018-09-29T02:36:07.395Z,4.85
2018-09-29T02:38:34.548Z,4.99
2018-09-29T02:41:01.711Z,4.79
2018-09-29T02:43:28.865Z,4.65
2018-09-29T02:45:56.031Z,4.66
2018-09-29T02:48:23.168Z,4.53
2018-09-29T02:50:50.313Z,4.39
2018-09-29T02:53:17.503Z,4.33
2018-09-29T02:55:44.640Z,4.22
2018-09-29T02:58:11.860Z,4.14
2018-09-29T03:00:39.023Z,4.07
2018-09-29T03:03:06.232Z,3.92
2018-09-29T03:05:33.468Z,3.86
2018-09-29T03:08:00.697Z,3.93
2018-09-29T03:10:27.813Z,3.85
2018-09-29T03:12:54.924Z,3.58
2018-09-29T03:15:22.252Z,3.68
2018-09-29T03:17:49.464Z,3.80
2018-09-29T03:20:16.577Z,3.54
2018-09-29T03:22:43.744Z,3.74
2018-09-29T03:25:10.929Z,3.88
2018-09-29T03:27:38.115Z,4.01
2018-09-29T03:30:05.540Z,4.02
2018-09-29T03:32:32.750Z,4.17
2018-09-29T03:34:59.881Z,4.35
2018-09-29T03:37:27.052Z,4.28
2018-09-29T03:39:54.252Z,4.31
2018-09-29T03:42:21.412Z,4.35
2018-09-29T03:44:48.553Z,4.13
2018-09-29T03:47:15.747Z,3.87
2018-09-29T03:49:42.897Z,4.18
2018-09-29T03:52:10.104Z,4.20
2018-09-29T03:54:37.264Z,4.19
2018-09-29T03:57:04.417Z,4.24
2018-09-29T03:59:31.607Z,4.24
2018-09-29T04:01:58.741Z,4.17
2018-09-29T04:04:25.904Z,4.19
2018-09-29T04:06:53.124Z,4.18
2018-09-29T04:09:21.252Z,4.12
2018-09-29T04:11:48.392Z,4.11
2018-09-29T04:14:15.567Z,4.18
2018-09-29T04:16:42.735Z,4.04
2018-09-29T04:19:09.952Z,4.12
2018-09-29T04:21:53.075Z,3.68
2018-09-29T04:24:20.235Z,3.69
2018-09-29T04:26:47.407Z,3.55
2018-09-29T04:29:15.792Z,3.55
2018-09-29T04:31:43.270Z,3.65
2018-09-29T04:34:11.150Z,3.49
2018-09-29T04:36:38.340Z,3.31
2018-09-29T04:39:07.516Z,3.26
2018-09-29T04:41:34.704Z,3.35
2018-09-29T04:44:01.847Z,3.37
2018-09-29T04:46:29.006Z,3.44
2018-09-29T04:48:56.166Z,3.09
2018-09-29T04:51:23.333Z,3.14
2018-09-29T04:53:50.513Z,3.46
2018-09-29T04:56:17.649Z,3.51
2018-09-29T04:58:44.840Z,3.62
2018-09-29T05:01:11.980Z,3.48
2018-09-29T05:03:39.132Z,3.36
2018-09-29T05:06:06.408Z,3.28
2018-09-29T05:08:33.593Z,3.02
2018-09-29T05:11:00.728Z,2.47
2018-09-29T05:13:27.921Z,2.40
2018-09-29T05:15:55.111Z,2.51
2018-09-29T05:18:22.287Z,2.76
2018-09-29T05:20:49.440Z,2.88
2018-09-29T05:23:16.597Z,2.92
2018-09-29T05:25:43.757Z,2.72
2018-09-29T05:28:11.239Z,3.10
2018-09-29T05:30:38.400Z,3.05
2018-09-29T05:33:05.668Z,2.82
2018-09-29T05:35:32.925Z,2.51
2018-09-29T05:38:00.117Z,2.85
2018-09-29T05:40:27.289Z,2.96
2018-09-29T05:42:54.523Z,2.81
2018-09-29T05:45:21.698Z,2.90
2018-09-29T05:47:48.935Z,2.49
2018-09-29T05:50:16.139Z,2.69
2018-09-29T05:52:43.398Z,3.10
2018-09-29T05:55:10.615Z,3.27
2018-09-29T05:57:37.871Z,3.37
2018-09-29T06:00:05.249Z,3.36
2018-09-29T06:02:32.503Z,3.47
2018-09-29T06:04:59.674Z,3.57
2018-09-29T06:07:26.828Z,3.76
2018-09-29T06:09:53.986Z,3.77
2018-09-29T06:12:21.137Z,3.82
2018-09-29T06:14:48.373Z,3.69
2018-09-29T06:17:15.593Z,3.90
2018-09-29T06:19:42.848Z,4.05
2018-09-29T06:22:10.076Z,4.04
2018-09-29T06:24:37.244Z,4.06
2018-09-29T06:27:04.434Z,4.04
2018-09-29T06:29:31.628Z,4.08
2018-09-29T06:31:58.872Z,4.21
2018-09-29T06:34:27.072Z,4.32
2018-09-29T06:36:54.273Z,4.45
2018-09-29T06:39:21.395Z,4.66
2018-09-29T06:41:48.539Z,4.65
2018-09-29T06:44:15.757Z,4.80
2018-09-29T06:46:42.993Z,5.08
2018-09-29T06:49:10.178Z,5.12
2018-09-29T06:51:37.379Z,5.36
2018-09-29T06:54:04.590Z,5.52
2018-09-29T06:56:31.784Z,5.76
2018-09-29T06:58:58.960Z,5.93
2018-09-29T07:01:26.127Z,6.14
2018-09-29T07:03:53.332Z,6.16
2018-09-29T07:06:20.545Z,6.28
2018-09-29T07:08:47.739Z,6.50
2018-09-29T07:11:14.884Z,6.67
2018-09-29T07:13:42.028Z,6.68
2018-09-29T07:16:09.257Z,6.71
2018-09-29T07:18:36.488Z,6.96
2018-09-29T07:21:03.716Z,7.05
2018-09-29T07:23:30.876Z,7.38
2018-09-29T07:25:58.083Z,7.47
2018-09-29T07:28:25.258Z,7.51
2018-09-29T07:30:52.514Z,7.80
2018-09-29T07:33:19.693Z,8.25
2018-09-29T07:35:46.865Z,8.73
2018-09-29T07:38:14.041Z,8.61
2018-09-29T07:40:41.233Z,8.58
2018-09-29T07:43:08.410Z,8.87
2018-09-29T07:45:35.580Z,9.30
2018-09-29T07:48:02.780Z,9.17
2018-09-29T07:50:30.024Z,9.53
2018-09-29T07:52:57.232Z,9.47
2018-09-29T07:55:24.389Z,9.51
2018-09-29T07:57:51.597Z,9.97
2018-09-29T08:00:18.780Z,9.72
2018-09-29T08:02:45.989Z,9.97
2018-09-29T08:05:13.198Z,10.03
2018-09-29T08:07:40.416Z,10.44
2018-09-29T08:10:07.705Z,10.26
2018-09-29T08:12:34.909Z,10.36
2018-09-29T08:15:02.528Z,10.26
2018-09-29T08:17:29.709Z,10.48
2018-09-29T08:19:56.849Z,10.49
2018-09-29T08:22:24.016Z,10.47
2018-09-29T08:24:51.208Z,10.74
2018-09-29T08:27:18.404Z,10.51
2018-09-29T08:29:45.787Z,10.43
2018-09-29T08:32:12.982Z,10.42
2018-09-29T08:34:40.241Z,10.48
2018-09-29T08:37:07.432Z,10.34
2018-09-29T08:39:34.605Z,10.39
2018-09-29T08:42:01.783Z,10.66
2018-09-29T08:44:28.975Z,10.69
2018-09-29T08:46:56.148Z,10.81
2018-09-29T08:49:23.402Z,10.71
2018-09-29T08:51:50.529Z,10.64
2018-09-29T08:54:17.693Z,10.79
2018-09-29T08:56:44.921Z,10.97
2018-09-29T08:59:12.136Z,11.18
2018-09-29T09:01:39.360Z,11.07
2018-09-29T09:04:06.653Z,11.19
2018-09-29T09:06:33.756Z,11.30
2018-09-29T09:09:00.936Z,11.23
2018-09-29T09:11:28.164Z,11.00
2018-09-29T09:13:55.338Z,11.11
2018-09-29T09:16:23.825Z,11.10
2018-09-29T09:18:51.074Z,11.23
2018-09-29T09:21:18.235Z,11.20
2018-09-29T09:23:45.469Z,11.21
2018-09-29T09:26:12.680Z,11.32
2018-09-29T09:28:40.094Z,11.39
2018-09-29T09:31:07.371Z,11.52
2018-09-29T09:33:34.540Z,11.53
2018-09-29T09:36:01.712Z,11.49
2018-09-29T09:38:29.008Z,11.44
2018-09-29T09:40:56.192Z,11.46
2018-09-29T09:43:23.373Z,11.61
2018-09-29T09:45:50.873Z,11.51
2018-09-29T09:48:18.052Z,11.33
2018-09-29T09:50:45.337Z,11.43
2018-09-29T09:53:12.532Z,11.64
2018-09-29T09:55:39.703Z,11.55
2018-09-29T09:58:06.877Z,11.71
2018-09-29T10:00:39.717Z,11.96
2018-09-29T10:03:12.495Z,12.10
2018-09-29T10:05:39.692Z,12.18
2018-09-29T10:08:06.873Z,12.00
2018-09-29T10:10:34.151Z,12.10
2018-09-29T10:13:01.311Z,12.29
2018-09-29T10:15:28.512Z,12.11
2018-09-29T10:17:55.720Z,11.95
2018-09-29T10:20:22.925Z,11.92
2018-09-29T10:22:50.199Z,12.42
2018-09-29T10:25:17.340Z,12.58
2018-09-29T10:27:44.577Z,12.71
2018-09-29T10:30:11.853Z,12.50
2018-09-29T10:32:39.072Z,12.58
2018-09-29T10:35:06.508Z,12.64
2018-09-29T10:37:33.680Z,12.46
2018-09-29T10:40:00.874Z,12.55
2018-09-29T10:42:28.047Z,12.93
2018-09-29T10:44:55.218Z,12.91
2018-09-29T10:47:22.436Z,12.40
2018-09-29T10:49:49.735Z,12.70
2018-09-29T10:52:16.907Z,12.81
2018-09-29T10:54:44.835Z,12.49
2018-09-29T10:57:12.119Z,12.75
2018-09-29T10:59:39.290Z,12.74
2018-09-29T11:02:06.452Z,12.96
2018-09-29T11:04:33.585Z,13.13
2018-09-29T11:07:00.806Z,12.96
2018-09-29T11:09:28.055Z,13.06
2018-09-29T11:11:55.247Z,13.05
2018-09-29T11:14:22.579Z,12.97
2018-09-29T11:19:23.764Z,13.31
2018-09-29T11:21:50.892Z,13.39
2018-09-29T11:24:18.074Z,13.39
2018-09-29T11:26:45.279Z,13.83
2018-09-29T11:29:12.491Z,13.94
2018-09-29T11:31:39.832Z,14.05
2018-09-29T11:34:06.985Z,14.59
2018-09-29T11:36:34.194Z,14.54
2018-09-29T11:39:01.439Z,15.01
2018-09-29T11:41:28.748Z,15.24
2018-09-29T11:43:55.946Z,15.19
2018-09-29T11:46:23.209Z,14.79
2018-09-29T11:48:50.420Z,15.35
2018-09-29T11:51:17.647Z,15.28
2018-09-29T11:53:44.844Z,14.66
2018-09-29T11:56:12.064Z,14.96
2018-09-29T11:58:39.182Z,15.01
2018-09-29T12:01:06.427Z,15.12
2018-09-29T12:03:33.673Z,15.23
2018-09-29T12:06:01.013Z,16.13
2018-09-29T12:08:28.128Z,16.28
2018-09-29T12:10:55.325Z,16.61
2018-09-29T12:13:22.501Z,16.11
2018-09-29T12:15:49.661Z,16.08
2018-09-29T12:18:16.892Z,15.85
2018-09-29T12:20:44.105Z,16.93
2018-09-29T12:23:11.320Z,17.74
2018-09-29T12:25:38.552Z,17.95
2018-09-29T12:28:05.704Z,16.91
2018-09-29T12:30:32.929Z,16.57
2018-09-29T12:33:00.148Z,17.18
2018-09-29T12:35:27.415Z,17.48
2018-09-29T12:37:54.664Z,16.80
2018-09-29T12:40:21.895Z,16.41
2018-09-29T12:42:49.111Z,17.29
2018-09-29T12:45:16.305Z,16.96
2018-09-29T12:47:43.598Z,16.86
2018-09-29T12:50:10.831Z,16.57
2018-09-29T12:52:44.902Z,17.26
2018-09-29T12:55:12.123Z,16.51
2018-09-29T12:57:39.386Z,16.61
2018-09-29T13:00:07.195Z,16.81
2018-09-29T13:02:34.422Z,17.13
2018-09-29T13:05:01.700Z,16.74
2018-09-29T13:07:28.941Z,17.02
2018-09-29T13:09:56.154Z,16.96
2018-09-29T13:12:23.353Z,16.59
2018-09-29T13:14:50.631Z,16.95
2018-09-29T13:17:17.860Z,17.01
2018-09-29T13:19:45.062Z,17.12
2018-09-29T13:22:12.401Z,17.29
2018-09-29T13:24:39.661Z,17.49
2018-09-29T13:27:06.910Z,17.70
2018-09-29T13:29:34.183Z,18.05
2018-09-29T13:32:01.496Z,18.31
2018-09-29T13:34:28.664Z,17.82
2018-09-29T13:36:55.864Z,17.05
2018-09-29T13:39:23.188Z,16.91
2018-09-29T13:41:50.428Z,17.55
2018-09-29T13:44:17.694Z,17.50
2018-09-29T13:46:44.922Z,18.65
2018-09-29T13:49:12.118Z,17.73
2018-09-29T13:51:39.288Z,17.52
2018-09-29T13:54:06.429Z,18.51
2018-09-29T13:56:34.519Z,19.02
2018-09-29T13:59:02.047Z,19.73
2018-09-29T14:01:29.224Z,19.91
2018-09-29T14:03:56.452Z,18.63
2018-09-29T14:06:23.617Z,17.86
2018-09-29T14:08:50.825Z,18.25
2018-09-29T14:11:18.076Z,18.51
2018-09-29T14:13:45.269Z,18.42
2018-09-29T14:16:12.495Z,18.11
2018-09-29T14:18:39.690Z,18.33
2018-09-29T14:21:06.860Z,17.69
2018-09-29T14:23:34.016Z,17.80
2018-09-29T14:26:01.249Z,17.90
2018-09-29T14:28:28.468Z,18.62
2018-09-29T14:30:55.679Z,19.44
2018-09-29T14:33:22.845Z,18.49
2018-09-29T14:35:50.043Z,18.25
2018-09-29T14:38:17.204Z,19.38
2018-09-29T14:40:44.409Z,19.67
2018-09-29T14:43:11.597Z,18.38
2018-09-29T14:45:38.773Z,18.39
2018-09-29T14:48:08.158Z,18.63
2018-09-29T14:50:35.508Z,17.91
2018-09-29T14:53:02.699Z,18.55
2018-09-29T14:55:29.956Z,19.31
2018-09-29T14:57:57.203Z,18.13
2018-09-29T15:00:24.483Z,17.65
2018-09-29T15:02:51.718Z,17.82
2018-09-29T15:05:18.990Z,19.39
2018-09-29T15:07:48.436Z,18.60
2018-09-29T15:10:16.965Z,17.67
2018-09-29T15:12:44.172Z,17.72
2018-09-29T15:15:11.477Z,17.06
2018-09-29T15:17:38.725Z,16.60
2018-09-29T15:20:06.081Z,16.62
2018-09-29T15:22:33.272Z,16.18
2018-09-29T15:25:00.515Z,15.52
2018-09-29T15:27:27.773Z,15.37
2018-09-29T15:29:55.011Z,15.55
2018-09-29T15:32:22.305Z,15.18
2018-09-29T15:34:49.566Z,14.64
2018-09-29T15:37:16.793Z,14.22
2018-09-29T15:39:44.118Z,14.44
2018-09-29T15:42:11.387Z,14.62
2018-09-29T15:44:38.619Z,14.29
2018-09-29T15:47:05.951Z,14.23
2018-09-29T15:49:33.165Z,14.07
2018-09-29T15:52:00.460Z,14.05
2018-09-29T15:54:27.698Z,14.40
2018-09-29T15:56:54.976Z,14.41
2018-09-29T15:59:22.206Z,14.41
2018-09-29T16:01:49.516Z,14.45
2018-09-29T16:04:16.744Z,14.35
2018-09-29T16:06:43.995Z,14.33
2018-09-29T16:09:11.227Z,14.12
2018-09-29T16:11:39.373Z,14.14
2018-09-29T16:14:06.616Z,14.09
2018-09-29T16:16:33.900Z,13.87
2018-09-29T16:19:01.057Z,13.62
2018-09-29T16:21:28.359Z,13.72
2018-09-29T16:23:55.530Z,13.80
2018-09-29T16:26:22.805Z,13.59
2018-09-29T16:28:49.953Z,13.58
2018-09-29T16:31:17.288Z,13.55
2018-09-29T16:33:44.510Z,13.22
2018-09-29T16:36:11.737Z,13.25
2018-09-29T16:38:39.003Z,13.26
2018-09-29T16:41:06.453Z,13.22
2018-09-29T16:43:33.996Z,13.16
2018-09-29T16:46:01.349Z,12.92
2018-09-29T16:48:28.549Z,12.78
2018-09-29T16:50:55.781Z,12.52
2018-09-29T16:53:22.975Z,12.42
2018-09-29T16:55:50.209Z,12.33
2018-09-29T16:58:17.437Z,12.14
2018-09-29T17:00:44.618Z,11.99
2018-09-29T17:03:11.836Z,11.81
2018-09-29T17:05:39.001Z,11.38
2018-09-29T17:08:06.272Z,11.78
2018-09-29T17:10:33.621Z,11.77
2018-09-29T17:13:00.864Z,11.77
2018-09-29T17:15:28.094Z,11.68
2018-09-29T17:17:55.304Z,11.64
2018-09-29T17:20:22.575Z,11.69
2018-09-29T17:22:49.795Z,11.57
2018-09-29T17:25:16.957Z,11.51
2018-09-29T17:27:44.136Z,11.40
2018-09-29T17:30:11.374Z,11.23
2018-09-29T17:32:38.581Z,11.12
2018-09-29T17:35:05.830Z,11.09
2018-09-29T17:37:33.033Z,11.07
2018-09-29T17:40:00.393Z,10.82
2018-09-29T17:42:27.672Z,10.67
2018-09-29T17:44:54.866Z,10.65
2018-09-29T17:47:22.068Z,10.66
2018-09-29T17:49:49.317Z,10.85
2018-09-29T17:52:16.585Z,10.86
2018-09-29T17:54:43.848Z,10.84
2018-09-29T17:57:11.456Z,10.88
2018-09-29T17:59:38.810Z,10.88
2018-09-29T18:02:06.183Z,10.81
2018-09-29T18:04:33.486Z,10.81
2018-09-29T18:07:01.234Z,10.77
2018-09-29T18:09:28.426Z,10.63
2018-09-29T18:11:55.656Z,10.57
2018-09-29T18:14:22.893Z,10.47
2018-09-29T18:16:50.148Z,10.45
2018-09-29T18:19:17.393Z,10.40
2018-09-29T18:21:44.687Z,10.32
2018-09-29T18:24:11.895Z,10.33
2018-09-29T18:26:39.123Z,9.97
2018-09-29T18:29:06.352Z,9.51
2018-09-29T18:31:33.725Z,9.58
2018-09-29T18:34:00.967Z,9.68
2018-09-29T18:36:28.247Z,9.55
2018-09-29T18:38:55.427Z,9.73
2018-09-29T18:41:22.638Z,9.67
2018-09-29T18:43:49.778Z,9.69
2018-09-29T18:46:16.981Z,9.64
2018-09-29T18:48:44.241Z,9.66
2018-09-29T18:51:11.507Z,9.56
2018-09-29T18:53:38.768Z,9.54
2018-09-29T18:56:06.132Z,9.38
2018-09-29T18:58:33.351Z,9.27
2018-09-29T19:01:00.570Z,9.35
2018-09-29T19:03:27.834Z,9.30
2018-09-29T19:05:55.077Z,9.26
2018-09-29T19:08:22.339Z,9.17
2018-09-29T19:10:49.555Z,9.01
2018-09-29T19:13:16.751Z,8.99
2018-09-29T19:15:43.978Z,8.89
2018-09-29T19:18:11.224Z,8.84
2018-09-29T19:20:38.470Z,8.79
2018-09-29T19:23:05.690Z,8.62
2018-09-29T19:25:32.930Z,8.68
2018-09-29T19:28:00.149Z,8.61
2018-09-29T19:30:27.318Z,8.51
2018-09-29T19:32:54.589Z,8.34
2018-09-29T19:35:21.800Z,8.45
2018-09-29T19:37:49.029Z,8.33
2018-09-29T19:40:16.252Z,8.50
2018-09-29T19:42:43.450Z,7.92
2018-09-29T19:45:11.464Z,7.41
2018-09-29T19:47:38.677Z,7.54
2018-09-29T19:50:06.283Z,7.88
2018-09-29T19:52:33.527Z,7.84
2018-09-29T19:55:00.785Z,7.93
2018-09-29T19:57:28.033Z,7.95
2018-09-29T19:59:55.312Z,7.88
2018-09-29T20:02:22.629Z,7.53
2018-09-29T20:04:49.848Z,7.76
2018-09-29T20:07:17.096Z,7.85
2018-09-29T20:09:44.345Z,7.74
2018-09-29T20:12:11.593Z,7.64
2018-09-29T20:14:38.837Z,7.54
2018-09-29T20:17:06.096Z,7.43
2018-09-29T20:19:33.378Z,7.33
2018-09-29T20:22:00.622Z,7.52
2018-09-29T20:24:27.913Z,7.48
2018-09-29T20:26:55.121Z,7.45
2018-09-29T20:29:22.387Z,7.37
2018-09-29T20:31:49.622Z,7.21
2018-09-29T20:34:16.849Z,7.22
2018-09-29T20:36:44.053Z,7.02
2018-09-29T20:39:12.739Z,7.02
2018-09-29T20:41:40.145Z,6.58
2018-09-29T20:44:07.702Z,6.56
2018-09-29T20:46:35.316Z,6.76
2018-09-29T20:49:02.582Z,6.93
2018-09-29T20:51:29.788Z,7.04
2018-09-29T20:53:57.103Z,6.92
2018-09-29T20:56:24.441Z,6.78
2018-09-29T20:58:51.686Z,6.62
2018-09-29T21:01:18.959Z,6.68
2018-09-29T21:03:46.211Z,6.59
2018-09-29T21:06:13.466Z,6.47
2018-09-29T21:08:41.328Z,6.36
2018-09-29T21:11:08.618Z,6.36
2018-09-29T21:13:35.921Z,6.33
2018-09-29T21:16:03.156Z,6.28
2018-09-29T21:18:30.733Z,6.40
2018-09-29T21:20:58.001Z,6.53
2018-09-29T21:23:25.214Z,6.51
2018-09-29T21:25:52.424Z,6.31
2018-09-29T21:28:19.735Z,6.29
2018-09-29T21:30:46.918Z,6.26
2018-09-29T21:33:14.206Z,6.06
2018-09-29T21:35:41.602Z,6.09
2018-09-29T21:38:11.166Z,5.98
2018-09-29T21:40:38.577Z,5.92
2018-09-29T21:43:05.900Z,5.99
2018-09-29T21:45:33.095Z,5.88
2018-09-29T21:48:00.253Z,5.61
2018-09-29T21:50:27.557Z,5.47
2018-09-29T21:52:54.785Z,5.67
2018-09-29T21:55:21.937Z,5.04
2018-09-29T21:57:49.155Z,4.80
2018-09-29T22:00:20.872Z,4.90
2018-09-29T22:02:48.060Z,5.11
2018-09-29T22:05:15.190Z,5.27
2018-09-29T22:07:42.329Z,5.19
2018-09-29T22:10:09.500Z,5.42
2018-09-29T22:12:36.670Z,5.48
2018-09-29T22:15:04.207Z,5.41
2018-09-29T22:17:31.357Z,5.32
2018-09-29T22:19:58.535Z,5.31
2018-09-29T22:22:25.707Z,5.28
2018-09-29T22:24:52.898Z,5.18
2018-09-29T22:27:20.084Z,5.27
2018-09-29T22:29:47.236Z,5.04
2018-09-29T22:32:14.440Z,5.11
2018-09-29T22:34:41.647Z,4.97
2018-09-29T22:37:08.785Z,5.16
2018-09-29T22:39:35.961Z,5.21
2018-09-29T22:42:03.147Z,4.72
2018-09-29T22:44:30.323Z,4.69
2018-09-29T22:46:57.492Z,4.48
2018-09-29T22:49:24.628Z,4.05
2018-09-29T22:51:51.821Z,4.06
2018-09-29T22:54:19.003Z,4.35
2018-09-29T22:56:46.203Z,4.37
2018-09-29T22:59:13.380Z,4.47
2018-09-29T23:01:40.580Z,4.56
2018-09-29T23:04:07.771Z,4.64
2018-09-29T23:06:34.925Z,4.54
2018-09-29T23:09:02.087Z,4.47
2018-09-29T23:11:29.226Z,4.54
2018-09-29T23:13:56.352Z,4.42
2018-09-29T23:16:23.529Z,4.39
2018-09-29T23:18:50.696Z,4.36
2018-09-29T23:21:17.900Z,4.32
2018-09-29T23:23:45.097Z,4.16
2018-09-29T23:26:12.233Z,3.98
2018-09-29T23:28:39.396Z,3.92
2018-09-29T23:31:06.552Z,3.89
2018-09-29T23:33:33.709Z,3.69
2018-09-29T23:36:00.901Z,3.64
2018-09-29T23:38:28.127Z,3.59
2018-09-29T23:40:55.296Z,3.52
2018-09-29T23:43:22.516Z,3.48
2018-09-29T23:45:49.724Z,3.52
2018-09-29T23:48:16.915Z,3.49
2018-09-29T23:50:44.104Z,3.48
2018-09-29T23:53:11.249Z,3.54
2018-09-29T23:55:38.464Z,3.54
2018-09-29T23:58:05.664Z,3.59
